createdAt,value
2019-01-18T00:00:49.340Z,99484.70
2019-01-18T00:03:18.676Z,99492.69
2019-01-18T00:05:48.338Z,99501.66
2019-01-18T00:08:17.656Z,99499.42
2019-01-18T00:10:47.002Z,99505.33
2019-01-18T00:13:16.324Z,99514.66
2019-01-18T00:15:45.653Z,99516.90
2019-01-18T00:18:15.264Z,99519.60
2019-01-18T00:20:44.837Z,99520.12
2019-01-18T00:23:14.476Z,99535.87
2019-01-18T00:25:44.064Z,99537.95
2019-01-18T00:28:13.627Z,99534.22
2019-01-18T00:30:42.950Z,99538.81
2019-01-18T00:33:12.536Z,99542.77
2019-01-18T00:35:41.876Z,99544.68
2019-01-18T00:38:11.467Z,99539.17
2019-01-18T00:40:40.797Z,99546.61
2019-01-18T00:43:10.170Z,99536.23
2019-01-18T00:45:39.828Z,99548.11
2019-01-18T00:48:09.186Z,99542.67
2019-01-18T00:50:38.857Z,99543.20
2019-01-18T00:53:08.427Z,99543.45
2019-01-18T00:55:38.028Z,99553.34
2019-01-18T00:58:07.627Z,99550.56
2019-01-18T01:00:36.951Z,99559.50
2019-01-18T01:03:06.315Z,99553.55
2019-01-18T01:05:35.656Z,99566.17
2019-01-18T01:08:05.159Z,99569.47
2019-01-18T01:10:34.721Z,99578.73
2019-01-18T01:13:04.378Z,99515.33
2019-01-18T01:15:33.680Z,99585.12
2019-01-18T01:18:03.278Z,99582.53
2019-01-18T01:20:32.864Z,99583.19
2019-01-18T01:23:02.451Z,99584.59
2019-01-18T01:25:32.053Z,99588.13
2019-01-18T01:28:01.408Z,99594.45
2019-01-18T01:30:31.030Z,99590.22
2019-01-18T01:33:00.360Z,99587.52
2019-01-18T01:35:29.948Z,99606.47
2019-01-18T01:37:59.253Z,99613.47
2019-01-18T01:40:28.931Z,99614.04
2019-01-18T01:42:58.229Z,99611.67
2019-01-18T01:45:27.848Z,99622.12
2019-01-18T01:47:57.232Z,99626.64
2019-01-18T01:50:27.061Z,99632.26
2019-01-18T01:52:56.456Z,99635.73
2019-01-18T01:55:25.818Z,99634.71
2019-01-18T01:57:55.435Z,99642.34
2019-01-18T02:00:27.002Z,99641.44
2019-01-18T02:02:56.362Z,99638.95
2019-01-18T02:05:25.684Z,99648.81
2019-01-18T02:07:55.029Z,99643.31
2019-01-18T02:10:24.630Z,99653.15
2019-01-18T02:12:53.967Z,99662.62
2019-01-18T02:15:26.191Z,99650.56
2019-01-18T02:17:55.530Z,99658.58
2019-01-18T02:20:25.471Z,99660.17
2019-01-18T02:22:54.788Z,99671.42
2019-01-18T02:25:24.449Z,99670.95
2019-01-18T02:27:53.748Z,99668.12
2019-01-18T02:30:28.105Z,99682.42
2019-01-18T02:32:57.792Z,99677.90
2019-01-18T02:35:27.378Z,99689.48
2019-01-18T02:37:56.954Z,99689.00
2019-01-18T02:40:26.549Z,99691.61
2019-01-18T02:42:55.853Z,99684.80
2019-01-18T02:45:25.207Z,99686.58
2019-01-18T02:47:54.537Z,99701.88
2019-01-18T02:50:23.848Z,99694.28
2019-01-18T02:52:53.429Z,99698.22
2019-01-18T02:55:28.854Z,99707.53
2019-01-18T02:57:53.776Z,99714.25
2019-01-18T03:00:24.053Z,99717.00
2019-01-18T03:02:53.932Z,99707.94
2019-01-18T03:05:25.967Z,99716.05
2019-01-18T03:07:55.267Z,99717.14
2019-01-18T03:10:29.686Z,99723.94
2019-01-18T03:12:59.297Z,99727.56
2019-01-18T03:15:28.601Z,99736.47
2019-01-18T03:17:57.923Z,99738.52
2019-01-18T03:20:27.270Z,99735.31
2019-01-18T03:22:56.583Z,99730.67
2019-01-18T03:25:27.229Z,99731.05
2019-01-18T03:27:56.541Z,99739.41
2019-01-18T03:30:25.883Z,99746.50
2019-01-18T03:32:55.185Z,99675.70
2019-01-18T03:35:24.585Z,99734.89
2019-01-18T03:37:53.891Z,99751.77
2019-01-18T03:40:23.460Z,99745.55
2019-01-18T03:42:52.879Z,99749.87
2019-01-18T03:45:22.194Z,99743.41
2019-01-18T03:47:51.576Z,99753.55
2019-01-18T03:50:25.840Z,99755.86
2019-01-18T03:52:55.137Z,99758.73
2019-01-18T03:55:24.460Z,99760.05
2019-01-18T03:57:53.782Z,99762.57
2019-01-18T04:00:29.854Z,99761.25
2019-01-18T04:02:59.653Z,99765.92
2019-01-18T04:05:28.980Z,99772.25
2019-01-18T04:07:58.309Z,99776.05
2019-01-18T04:10:27.656Z,99784.30
2019-01-18T04:12:57.053Z,99783.58
2019-01-18T04:15:26.827Z,99783.58
2019-01-18T04:17:56.176Z,99792.89
2019-01-18T04:20:25.487Z,99797.90
2019-01-18T04:22:55.084Z,99795.05
2019-01-18T04:25:26.076Z,99801.37
2019-01-18T04:27:55.369Z,99806.52
2019-01-18T04:30:25.180Z,99811.05
2019-01-18T04:32:54.535Z,99813.79
2019-01-18T04:35:23.840Z,99807.22
2019-01-18T04:37:53.191Z,99819.75
2019-01-18T04:40:26.237Z,99816.53
2019-01-18T04:42:56.283Z,99822.52
2019-01-18T04:45:25.681Z,99828.98
2019-01-18T04:47:54.987Z,99830.44
2019-01-18T04:50:27.435Z,99841.19
2019-01-18T04:52:56.745Z,99702.33
2019-01-18T04:55:26.112Z,99831.58
2019-01-18T04:57:55.776Z,99847.77
2019-01-18T05:00:30.360Z,99856.46
2019-01-18T05:02:59.696Z,99864.94
2019-01-18T05:05:29.001Z,99867.59
2019-01-18T05:07:58.670Z,99876.67
2019-01-18T05:10:29.568Z,99882.53
2019-01-18T05:12:59.180Z,99892.70
2019-01-18T05:15:31.787Z,99903.56
2019-01-18T05:18:01.260Z,99930.45
2019-01-18T05:20:30.813Z,99938.19
2019-01-18T05:23:00.181Z,99956.81
2019-01-18T05:25:29.510Z,99969.48
2019-01-18T05:27:58.835Z,99978.55
2019-01-18T05:30:30.060Z,99974.54
2019-01-18T05:32:59.395Z,99992.23
2019-01-18T05:35:28.689Z,99998.80
2019-01-18T05:37:58.314Z,100007.71
2019-01-18T05:40:27.923Z,100008.33
2019-01-18T05:42:57.663Z,100025.34
2019-01-18T05:45:27.144Z,100037.91
2019-01-18T05:47:56.478Z,100050.47
2019-01-18T05:50:28.451Z,100055.66
2019-01-18T05:52:58.634Z,100058.05
2019-01-18T05:55:28.245Z,100070.76
2019-01-18T05:57:57.618Z,100076.98
2019-01-18T06:00:34.012Z,100086.59
2019-01-18T06:03:03.370Z,100096.82
2019-01-18T06:05:33.408Z,100100.92
2019-01-18T06:08:02.826Z,100099.62
2019-01-18T06:10:32.282Z,100104.97
2019-01-18T06:13:01.935Z,100120.16
2019-01-18T06:15:31.792Z,100051.76
2019-01-18T06:18:01.261Z,100116.75
2019-01-18T06:20:30.841Z,100128.97
2019-01-18T06:23:00.173Z,100133.41
2019-01-18T06:25:29.777Z,100129.50
2019-01-18T06:27:59.117Z,100143.61
2019-01-18T06:30:28.678Z,100143.40
2019-01-18T06:32:58.285Z,100149.23
2019-01-18T06:35:27.850Z,100149.77
2019-01-18T06:37:57.189Z,100152.42
2019-01-18T06:40:26.771Z,100160.63
2019-01-18T06:42:56.339Z,100159.36
2019-01-18T06:45:29.810Z,100162.92
2019-01-18T06:47:59.386Z,100165.86
2019-01-18T06:50:28.974Z,100168.85
2019-01-18T06:52:58.558Z,100174.91
2019-01-18T06:55:27.922Z,100180.19
2019-01-18T06:57:57.483Z,100183.75
2019-01-18T07:00:31.853Z,100192.27
2019-01-18T07:03:01.191Z,100202.97
2019-01-18T07:05:30.511Z,100210.00
2019-01-18T07:08:00.130Z,100211.69
2019-01-18T07:10:29.734Z,100215.30
2019-01-18T07:12:59.053Z,100223.22
2019-01-18T07:15:28.656Z,100221.02
2019-01-18T07:17:58.250Z,100232.99
2019-01-18T07:20:27.846Z,100168.34
2019-01-18T07:22:57.436Z,100242.39
2019-01-18T07:25:29.261Z,100247.89
2019-01-18T07:27:58.601Z,100251.78
2019-01-18T07:30:34.625Z,100253.21
2019-01-18T07:33:18.667Z,100267.61
2019-01-18T07:35:49.174Z,100264.52
2019-01-18T07:38:18.516Z,100272.56
2019-01-18T07:40:47.860Z,100285.94
2019-01-18T07:43:17.164Z,100282.55
2019-01-18T07:45:46.991Z,100280.44
2019-01-18T07:48:16.618Z,100294.35
2019-01-18T07:50:46.212Z,100291.81
2019-01-18T07:53:16.416Z,100308.58
2019-01-18T07:55:45.889Z,100309.42
2019-01-18T07:58:15.220Z,100314.50
2019-01-18T08:00:44.550Z,100323.94
2019-01-18T08:03:13.899Z,100332.95
2019-01-18T08:05:43.238Z,100336.89
2019-01-18T08:08:12.555Z,100340.53
2019-01-18T08:10:41.925Z,100350.17
2019-01-18T08:13:11.299Z,100359.09
2019-01-18T08:15:40.922Z,100365.92
2019-01-18T08:18:10.523Z,100370.81
2019-01-18T08:20:39.840Z,100368.02
2019-01-18T08:23:09.473Z,100370.29
2019-01-18T08:25:38.797Z,100378.72
2019-01-18T08:28:08.355Z,100393.96
2019-01-18T08:30:37.695Z,100390.92
2019-01-18T08:33:07.071Z,100401.59
2019-01-18T08:35:36.640Z,100402.14
2019-01-18T08:38:05.972Z,100415.92
2019-01-18T08:40:37.850Z,100418.64
2019-01-18T08:43:08.859Z,100425.95
2019-01-18T08:45:45.591Z,100430.26
2019-01-18T08:48:15.190Z,100435.22
2019-01-18T08:50:44.511Z,100438.78
2019-01-18T08:53:14.117Z,100457.41
2019-01-18T08:55:43.465Z,100467.31
2019-01-18T08:58:12.776Z,100467.89
2019-01-18T09:00:42.414Z,100475.21
2019-01-18T09:03:11.691Z,100482.60
2019-01-18T09:05:41.401Z,100490.57
2019-01-18T09:08:11.031Z,100498.25
2019-01-18T09:10:40.655Z,100507.98
2019-01-18T09:13:10.244Z,100518.13
2019-01-18T09:15:39.844Z,100515.88
2019-01-18T09:18:09.455Z,100529.74
2019-01-18T09:20:38.786Z,100541.73
2019-01-18T09:23:08.132Z,100542.27
2019-01-18T09:25:37.726Z,100553.61
2019-01-18T09:28:07.349Z,100560.06
2019-01-18T09:30:36.661Z,100559.59
2019-01-18T09:33:06.759Z,100561.39
2019-01-18T09:35:36.607Z,100568.30
2019-01-18T09:38:08.145Z,100578.33
2019-01-18T09:40:37.483Z,100574.12
2019-01-18T09:43:06.828Z,100587.24
2019-01-18T09:45:36.468Z,100588.91
2019-01-18T09:48:06.614Z,100605.02
2019-01-18T09:50:35.910Z,100600.44
2019-01-18T09:53:07.763Z,100606.17
2019-01-18T09:55:37.104Z,100602.82
2019-01-18T09:58:06.740Z,100611.42
2019-01-18T10:00:38.035Z,100609.45
2019-01-18T10:03:07.615Z,100612.63
2019-01-18T10:05:36.948Z,100618.17
2019-01-18T10:08:06.524Z,100623.38
2019-01-18T10:10:37.081Z,100631.17
2019-01-18T10:13:06.403Z,100629.41
2019-01-18T10:15:40.044Z,100625.74
2019-01-18T10:18:09.669Z,100625.47
2019-01-18T10:20:39.131Z,100632.98
2019-01-18T10:23:08.768Z,100641.81
2019-01-18T10:25:38.548Z,100638.23
2019-01-18T10:28:08.052Z,100643.70
2019-01-18T10:30:37.457Z,100638.80
2019-01-18T10:33:07.245Z,100638.81
2019-01-18T10:35:37.863Z,100642.09
2019-01-18T10:38:07.270Z,100644.02
2019-01-18T10:40:36.912Z,100651.70
2019-01-18T10:43:06.730Z,100650.58
2019-01-18T10:45:36.451Z,100644.03
2019-01-18T10:48:05.795Z,100649.00
2019-01-18T10:50:35.599Z,100658.11
2019-01-18T10:53:05.320Z,100659.06
2019-01-18T10:55:34.807Z,100586.86
2019-01-18T10:58:04.870Z,100656.43
2019-01-18T11:00:35.085Z,100658.30
2019-01-18T11:03:04.553Z,100661.85
2019-01-18T11:05:34.027Z,100658.44
2019-01-18T11:08:03.822Z,100656.67
2019-01-18T11:10:33.604Z,100663.41
2019-01-18T11:13:03.004Z,100666.09
2019-01-18T11:15:35.964Z,100667.81
2019-01-18T11:18:03.968Z,100667.48
2019-01-18T11:20:51.104Z,100683.80
2019-01-18T11:23:20.522Z,100679.08
2019-01-18T11:25:50.050Z,100674.69
2019-01-18T11:28:19.508Z,100633.52
2019-01-18T11:30:48.998Z,100684.69
2019-01-18T11:33:18.455Z,100692.27
2019-01-18T11:35:47.806Z,100621.38
2019-01-18T11:38:17.623Z,100690.52
2019-01-18T11:40:47.200Z,100686.67
2019-01-18T11:43:16.622Z,100690.52
2019-01-18T11:45:46.187Z,100692.94
2019-01-18T11:48:16.077Z,100689.55
2019-01-18T11:50:45.672Z,100688.67
2019-01-18T11:53:15.354Z,100692.58
2019-01-18T11:55:45.127Z,100689.30
2019-01-18T11:58:14.539Z,100691.95
2019-01-18T12:00:44.220Z,100700.31
2019-01-18T12:03:13.545Z,100708.66
2019-01-18T12:05:43.253Z,100703.50
2019-01-18T12:08:12.657Z,100703.59
2019-01-18T12:10:42.400Z,100702.72
2019-01-18T12:13:11.999Z,100704.68
2019-01-18T12:15:41.338Z,100709.66
2019-01-18T12:18:10.900Z,100710.09
2019-01-18T12:20:40.275Z,100709.51
2019-01-18T12:23:09.906Z,100713.38
2019-01-18T12:25:39.270Z,100655.38
2019-01-18T12:28:08.805Z,100714.56
2019-01-18T12:30:38.408Z,100725.70
2019-01-18T12:33:08.139Z,100723.44
2019-01-18T12:35:37.965Z,100731.51
2019-01-18T12:38:07.736Z,100726.45
2019-01-18T12:40:37.798Z,100734.44
2019-01-18T12:43:07.127Z,100733.80
2019-01-18T12:45:36.566Z,100728.80
2019-01-18T12:48:06.440Z,100741.77
2019-01-18T12:50:36.645Z,100740.26
2019-01-18T12:53:06.540Z,100731.08
2019-01-18T12:55:36.536Z,100733.99
2019-01-18T12:58:06.285Z,100739.14
2019-01-18T13:00:35.608Z,100739.61
2019-01-18T13:03:05.433Z,100732.20
2019-01-18T13:05:41.582Z,100734.17
2019-01-18T13:08:11.186Z,100741.39
2019-01-18T13:10:40.867Z,100743.66
2019-01-18T13:13:10.324Z,100740.80
2019-01-18T13:15:50.214Z,100734.52
2019-01-18T13:18:19.544Z,100743.45
2019-01-18T13:20:48.862Z,100744.83
2019-01-18T13:23:18.221Z,100739.31
2019-01-18T13:25:47.525Z,100751.59
2019-01-18T13:28:17.130Z,100749.08
2019-01-18T13:30:46.708Z,100753.75
2019-01-18T13:33:16.043Z,100752.66
2019-01-18T13:35:45.699Z,100759.97
2019-01-18T13:38:15.021Z,100758.55
2019-01-18T13:40:44.703Z,100758.10
2019-01-18T13:43:14.374Z,100760.83
2019-01-18T13:45:44.059Z,100769.63
2019-01-18T13:48:13.403Z,100755.20
2019-01-18T13:50:42.747Z,100761.77
2019-01-18T13:53:12.140Z,100763.73
2019-01-18T13:55:41.502Z,100765.05
2019-01-18T13:58:10.815Z,100770.66
2019-01-18T14:00:40.189Z,100773.39
2019-01-18T14:03:10.100Z,100769.90
2019-01-18T14:05:39.739Z,100773.94
2019-01-18T14:08:09.449Z,100678.94
2019-01-18T14:10:39.328Z,100773.65
2019-01-18T14:13:08.702Z,100775.05
2019-01-18T14:15:38.301Z,100780.70
2019-01-18T14:18:08.049Z,100786.41
2019-01-18T14:20:37.849Z,100777.61
2019-01-18T14:23:07.687Z,100794.77
2019-01-18T14:25:37.111Z,100788.66
2019-01-18T14:28:07.045Z,100782.87
2019-01-18T14:30:36.709Z,100789.70
2019-01-18T14:33:06.166Z,100794.69
2019-01-18T14:35:35.725Z,100790.64
2019-01-18T14:38:05.350Z,100800.83
2019-01-18T14:40:34.693Z,100804.76
2019-01-18T14:43:04.055Z,100798.20
2019-01-18T14:45:42.959Z,100808.95
2019-01-18T14:48:13.244Z,100811.50
2019-01-18T14:50:43.458Z,100810.00
2019-01-18T14:53:15.627Z,100800.23
2019-01-18T14:55:44.729Z,100797.02
2019-01-18T14:58:14.212Z,100799.64
2019-01-18T15:00:44.018Z,100808.55
2019-01-18T15:03:14.745Z,100808.06
2019-01-18T15:05:44.339Z,100804.67
2019-01-18T15:08:13.665Z,100807.86
2019-01-18T15:10:42.989Z,100812.78
2019-01-18T15:13:14.416Z,100809.67
2019-01-18T15:15:43.843Z,100754.73
2019-01-18T15:18:13.193Z,100819.37
2019-01-18T15:20:42.799Z,100819.39
2019-01-18T15:23:12.117Z,100818.67
2019-01-18T15:25:41.431Z,100820.65
2019-01-18T15:28:11.025Z,100822.77
2019-01-18T15:30:40.688Z,100822.84
2019-01-18T15:33:10.056Z,100817.64
2019-01-18T15:35:40.006Z,100819.84
2019-01-18T15:38:09.734Z,100821.83
2019-01-18T15:40:42.849Z,100827.17
2019-01-18T15:43:14.207Z,100825.12
2019-01-18T15:45:43.560Z,100831.67
2019-01-18T15:48:12.952Z,100825.69
2019-01-18T15:50:42.317Z,100835.15
2019-01-18T15:53:11.903Z,100829.45
2019-01-18T15:55:41.528Z,100830.34
2019-01-18T15:58:11.131Z,100832.24
2019-01-18T16:00:42.639Z,100836.28
2019-01-18T16:03:16.071Z,100836.35
2019-01-18T16:05:43.268Z,100834.44
2019-01-18T16:08:12.599Z,100787.30
2019-01-18T16:10:42.233Z,100826.75
2019-01-18T16:13:11.566Z,100832.52
2019-01-18T16:15:54.852Z,100829.41
2019-01-18T16:18:26.070Z,100825.20
2019-01-18T16:20:55.682Z,100825.83
2019-01-18T16:23:25.308Z,100832.85
2019-01-18T16:25:54.907Z,100833.08
2019-01-18T16:28:24.330Z,100834.77
2019-01-18T16:30:54.107Z,100837.53
2019-01-18T16:33:23.807Z,100825.91
2019-01-18T16:35:53.532Z,100833.53
2019-01-18T16:38:23.523Z,100835.81
2019-01-18T16:40:53.126Z,100839.25
2019-01-18T16:43:29.996Z,100832.48
2019-01-18T16:45:59.356Z,100839.75
2019-01-18T16:48:28.680Z,100839.42
2019-01-18T16:50:58.287Z,100842.94
2019-01-18T16:53:27.949Z,100845.21
2019-01-18T16:55:57.663Z,100848.20
2019-01-18T16:58:27.017Z,100854.84
2019-01-18T17:01:00.564Z,100854.69
2019-01-18T17:03:30.843Z,100857.53
2019-01-18T17:06:00.533Z,100856.02
2019-01-18T17:08:29.901Z,100854.55
2019-01-18T17:10:59.236Z,100858.77
2019-01-18T17:13:28.956Z,100855.41
2019-01-18T17:15:58.592Z,100852.79
2019-01-18T17:18:27.982Z,100853.61
2019-01-18T17:20:57.317Z,100853.94
2019-01-18T17:23:26.936Z,100861.27
2019-01-18T17:25:56.257Z,100860.31
2019-01-18T17:28:25.861Z,100865.94
2019-01-18T17:30:55.500Z,100870.95
2019-01-18T17:33:25.116Z,100871.11
2019-01-18T17:36:02.003Z,100869.94
2019-01-18T17:39:09.135Z,100872.64
2019-01-18T17:42:12.096Z,100876.50
2019-01-18T17:45:21.058Z,100883.09
2019-01-18T17:48:17.772Z,100876.73
2019-01-18T17:51:25.276Z,100879.64
2019-01-18T17:54:11.418Z,100880.19
2019-01-18T17:57:13.984Z,100883.02
2019-01-18T18:00:31.758Z,100887.86
2019-01-18T18:03:17.655Z,100891.19
2019-01-18T18:06:20.497Z,100890.95
2019-01-18T18:09:12.506Z,100889.88
2019-01-18T18:11:58.116Z,100900.33
2019-01-18T18:14:47.155Z,100894.04
2019-01-18T18:17:27.383Z,100905.48
2019-01-18T18:20:20.260Z,100903.42
2019-01-18T18:23:22.164Z,100906.03
2019-01-18T18:26:02.066Z,100907.93
2019-01-18T18:29:15.320Z,100907.16
2019-01-18T18:32:13.575Z,100906.53
2019-01-18T18:35:10.438Z,100905.44
2019-01-18T18:38:22.139Z,100919.45
2019-01-18T18:41:23.058Z,100915.08
2019-01-18T18:44:18.647Z,100915.08
2019-01-18T18:47:28.937Z,100913.53
2019-01-18T18:50:39.054Z,100913.29
2019-01-18T18:53:30.844Z,100909.16
2019-01-18T18:56:07.637Z,100909.84
2019-01-18T18:59:26.632Z,100906.17
2019-01-18T19:02:31.967Z,100901.17
2019-01-18T19:05:18.058Z,100908.87
2019-01-18T19:08:13.194Z,100907.02
2019-01-18T19:10:56.496Z,100909.38
2019-01-18T19:14:08.369Z,100901.78
2019-01-18T19:16:48.594Z,100903.91
2019-01-18T19:19:31.496Z,100905.14
2019-01-18T19:22:20.427Z,100906.05
2019-01-18T19:25:16.911Z,100909.09
2019-01-18T19:27:57.187Z,100908.23
2019-01-18T19:30:37.208Z,100913.26
2019-01-18T19:33:26.004Z,100909.34
2019-01-18T19:36:41.055Z,100904.98
2019-01-18T19:39:27.491Z,100907.94
2019-01-18T19:42:41.270Z,100911.77
2019-01-18T19:45:21.243Z,100908.63
2019-01-18T19:48:04.433Z,100911.80
2019-01-18T19:51:05.320Z,100907.78
2019-01-18T19:53:47.958Z,100917.14
2019-01-18T19:56:34.337Z,100908.39
2019-01-18T19:59:17.564Z,100915.20
2019-01-18T20:01:54.679Z,100914.04
2019-01-18T20:05:09.470Z,100908.56
2019-01-18T20:07:58.562Z,100915.17
2019-01-18T20:10:49.053Z,100922.38
2019-01-18T20:13:51.595Z,100922.67
2019-01-18T20:16:48.188Z,100926.47
2019-01-18T20:19:44.662Z,100925.16
2019-01-18T20:22:27.645Z,100920.39
2019-01-18T20:25:04.609Z,100917.56
2019-01-18T20:27:41.607Z,100921.62
2019-01-18T20:30:33.649Z,100922.55
2019-01-18T20:33:25.717Z,100921.88
2019-01-18T20:36:08.428Z,100923.64
2019-01-18T20:39:00.502Z,100923.09
2019-01-18T20:42:11.832Z,100928.67
2019-01-18T20:45:17.026Z,100927.16
2019-01-18T20:48:26.366Z,100931.14
2019-01-18T20:51:06.469Z,100944.02
2019-01-18T20:53:43.998Z,100946.47
2019-01-18T20:56:33.131Z,100947.17
2019-01-18T20:59:22.095Z,100948.08
2019-01-18T21:02:18.634Z,100951.44
2019-01-18T21:05:11.804Z,100954.05
2019-01-18T21:07:59.432Z,100952.63
2019-01-18T21:10:36.516Z,100955.16
2019-01-18T21:13:22.511Z,100961.33
2019-01-18T21:16:02.958Z,100954.05
2019-01-18T21:18:58.355Z,100953.85
2019-01-18T21:21:53.788Z,100956.47
2019-01-18T21:24:46.060Z,100962.69
2019-01-18T21:27:44.151Z,100967.06
2019-01-18T21:30:43.533Z,100965.10
2019-01-18T21:33:49.034Z,100959.08
2019-01-18T21:36:38.039Z,100966.66
2019-01-18T21:39:37.534Z,100968.17
2019-01-18T21:42:14.697Z,100961.44
2019-01-18T21:45:00.684Z,100963.34
2019-01-18T21:48:01.946Z,100966.95
2019-01-18T21:51:11.910Z,100963.94
2019-01-18T21:54:04.323Z,100961.18
2019-01-18T21:56:50.215Z,100958.66
2019-01-18T21:59:24.569Z,100954.14
2019-01-18T22:02:13.038Z,100959.05
2019-01-18T22:04:47.562Z,100958.58
2019-01-18T22:07:33.835Z,100962.91
2019-01-18T22:10:34.816Z,100965.97
2019-01-18T22:13:29.681Z,100964.20
2019-01-18T22:16:32.417Z,100942.14
2019-01-18T22:19:25.677Z,100972.05
2019-01-18T22:22:25.273Z,100966.68
2019-01-18T22:25:42.732Z,100967.69
2019-01-18T22:28:35.982Z,100966.58
2019-01-18T22:31:16.312Z,100968.25
2019-01-18T22:34:02.481Z,100964.75
2019-01-18T22:37:12.996Z,100963.97
2019-01-18T22:39:47.536Z,100962.38
2019-01-18T22:42:24.381Z,100963.76
2019-01-18T22:45:25.643Z,100961.72
2019-01-18T22:48:14.792Z,100961.09
2019-01-18T22:51:11.545Z,100971.52
2019-01-18T22:53:48.766Z,100963.83
2019-01-18T22:56:25.769Z,100974.39
2019-01-18T22:59:08.735Z,100969.55
2019-01-18T23:02:04.109Z,100963.30
2019-01-18T23:04:55.704Z,100963.29
2019-01-18T23:08:03.262Z,100966.63
2019-01-18T23:11:01.541Z,100968.24
2019-01-18T23:13:41.421Z,100968.72
2019-01-18T23:16:35.348Z,100966.70
2019-01-18T23:19:21.697Z,100963.66
2019-01-18T23:22:04.842Z,100968.11
2019-01-18T23:24:50.856Z,100969.17
2019-01-18T23:27:56.520Z,100964.68
2019-01-18T23:30:51.371Z,100964.02
2019-01-18T23:33:40.306Z,100968.19
2019-01-18T23:36:17.242Z,100962.39
2019-01-18T23:39:20.694Z,100955.70
2019-01-18T23:42:36.552Z,100955.38
2019-01-18T23:45:46.450Z,100954.21
2019-01-18T23:48:35.339Z,100946.22
2019-01-18T23:51:42.428Z,100948.59
2019-01-18T23:54:47.886Z,100947.97
2019-01-18T23:57:27.554Z,100939.68
